createdAt,value
2019-02-12T00:01:58.309Z,10.27
2019-02-12T00:07:06.669Z,9.60
2019-02-12T00:12:14.794Z,12.77
2019-02-12T00:17:22.853Z,9.20
2019-02-12T00:22:30.861Z,11.82
2019-02-12T00:27:39.045Z,9.70
2019-02-12T00:32:47.195Z,9.17
2019-02-12T00:37:55.283Z,7.79
2019-02-12T00:43:03.433Z,9.42
2019-02-12T00:48:11.588Z,6.69
2019-02-12T00:53:19.689Z,8.01
2019-02-12T00:58:27.720Z,7.67
2019-02-12T01:03:35.836Z,8.86
2019-02-12T01:08:43.916Z,6.50
2019-02-12T01:13:52.057Z,9.85
2019-02-12T01:19:00.061Z,4.99
2019-02-12T01:24:08.224Z,7.20
2019-02-12T01:29:16.341Z,8.35
2019-02-12T01:34:24.456Z,17.12
2019-02-12T01:39:32.501Z,8.33
2019-02-12T01:44:40.709Z,5.00
2019-02-12T01:49:48.970Z,9.41
2019-02-12T01:54:57.089Z,8.32
2019-02-12T02:00:05.213Z,7.18
2019-02-12T02:05:13.280Z,5.42
2019-02-12T02:10:21.485Z,9.89
2019-02-12T02:15:29.611Z,6.99
2019-02-12T02:20:37.801Z,7.37
2019-02-12T02:25:46.238Z,7.03
2019-02-12T02:30:55.791Z,7.77
2019-02-12T02:36:04.025Z,9.22
2019-02-12T02:41:12.115Z,8.83
2019-02-12T02:46:20.308Z,11.14
2019-02-12T02:51:28.441Z,8.05
2019-02-12T02:56:36.468Z,8.01
2019-02-12T03:01:44.677Z,8.37
2019-02-12T03:06:52.770Z,7.00
2019-02-12T03:12:00.861Z,7.75
2019-02-12T03:17:09.294Z,9.09
2019-02-12T03:22:17.396Z,7.57
2019-02-12T03:27:25.514Z,7.93
2019-02-12T03:32:33.677Z,7.28
2019-02-12T03:37:41.814Z,7.38
2019-02-12T03:42:49.929Z,7.87
2019-02-12T03:47:58.081Z,8.27
2019-02-12T03:53:06.182Z,7.57
2019-02-12T03:58:14.307Z,9.25
2019-02-12T04:03:22.409Z,8.43
2019-02-12T04:08:30.545Z,9.00
2019-02-12T04:13:38.710Z,13.08
2019-02-12T04:18:46.861Z,8.39
2019-02-12T04:23:54.896Z,6.87
2019-02-12T04:29:02.981Z,5.21
2019-02-12T04:34:11.106Z,7.30
2019-02-12T04:39:19.130Z,9.17
2019-02-12T04:44:27.181Z,7.19
2019-02-12T04:49:35.182Z,8.05
2019-02-12T04:54:43.192Z,8.17
2019-02-12T04:59:51.305Z,7.43
2019-02-12T05:04:59.432Z,8.19
2019-02-12T05:10:07.611Z,9.02
2019-02-12T05:15:15.593Z,8.27
2019-02-12T05:20:23.680Z,7.79
2019-02-12T05:25:31.969Z,7.25
2019-02-12T05:30:39.999Z,8.10
2019-02-12T05:35:48.189Z,6.46
2019-02-12T05:40:56.366Z,7.30
2019-02-12T05:46:04.631Z,7.08
2019-02-12T05:51:12.788Z,9.42
2019-02-12T05:56:20.899Z,9.47
2019-02-12T06:01:29.710Z,8.53
2019-02-12T06:06:37.813Z,10.57
2019-02-12T06:11:45.958Z,9.42
2019-02-12T06:16:54.682Z,11.81
2019-02-12T06:22:02.812Z,8.86
2019-02-12T06:27:10.961Z,11.43
2019-02-12T06:32:19.108Z,10.56
2019-02-12T06:37:27.413Z,11.11
2019-02-12T06:42:35.828Z,10.25
2019-02-12T06:47:44.269Z,11.35
2019-02-12T06:52:52.293Z,10.97
2019-02-12T06:58:00.717Z,12.36
2019-02-12T07:03:08.829Z,10.21
2019-02-12T07:08:17.053Z,11.93
2019-02-12T07:13:25.189Z,8.45
2019-02-12T07:18:33.249Z,10.92
2019-02-12T07:23:41.851Z,8.59
2019-02-12T07:28:50.583Z,11.24
2019-02-12T07:33:58.756Z,12.84
2019-02-12T07:39:07.026Z,12.28
2019-02-12T07:44:15.241Z,13.55
2019-02-12T07:49:23.418Z,10.60
2019-02-12T07:54:31.733Z,12.02
2019-02-12T07:59:39.927Z,7.66
2019-02-12T08:04:48.164Z,11.04
2019-02-12T08:20:13.017Z,12.42
2019-02-12T08:30:29.894Z,12.91
2019-02-12T08:35:38.566Z,14.75
2019-02-12T08:40:46.701Z,13.42
2019-02-12T08:45:54.986Z,12.33
2019-02-12T08:51:03.245Z,18.06
2019-02-12T08:56:12.062Z,10.62
2019-02-12T09:06:29.420Z,10.86
2019-02-12T09:16:46.441Z,18.59
2019-02-12T09:21:54.610Z,13.21
2019-02-12T09:27:02.756Z,12.21
2019-02-12T09:32:11.014Z,10.02
2019-02-12T09:37:19.161Z,12.02
2019-02-12T09:52:44.522Z,17.82
2019-02-12T09:57:52.660Z,16.96
2019-02-12T10:03:00.901Z,20.79
2019-02-12T10:08:09.133Z,17.69
2019-02-12T10:13:17.324Z,16.74
2019-02-12T10:18:25.517Z,17.82
2019-02-12T10:23:33.981Z,17.95
2019-02-12T10:28:48.615Z,13.30
2019-02-12T10:44:06.401Z,11.05
2019-02-12T10:49:14.652Z,11.19
2019-02-12T10:54:27.908Z,13.67
2019-02-12T10:59:30.765Z,14.24
2019-02-12T11:09:47.544Z,14.27
2019-02-12T11:25:12.052Z,11.30
2019-02-12T11:30:21.293Z,7.49
2019-02-12T11:35:29.541Z,10.55
2019-02-12T11:40:37.618Z,12.59
2019-02-12T11:45:45.993Z,13.16
2019-02-12T11:50:54.137Z,11.54
2019-02-12T11:56:02.312Z,10.00
2019-02-12T12:01:10.818Z,11.61
2019-02-12T12:06:18.857Z,12.83
2019-02-12T12:11:26.868Z,11.67
2019-02-12T12:16:35.312Z,8.80
2019-02-12T12:21:43.378Z,8.09
2019-02-12T12:26:53.154Z,8.76
2019-02-12T12:32:01.309Z,10.86
2019-02-12T12:37:09.374Z,8.08
2019-02-12T12:42:17.640Z,7.75
2019-02-12T12:47:25.716Z,7.04
2019-02-12T12:52:33.738Z,7.61
2019-02-12T12:57:42.350Z,5.90
2019-02-12T13:02:49.293Z,6.27
2019-02-12T13:07:55.641Z,4.97
2019-02-12T13:13:04.832Z,7.22
2019-02-12T13:18:11.261Z,6.33
2019-02-12T13:23:19.320Z,6.28
2019-02-12T13:28:27.409Z,9.56
2019-02-12T13:33:35.377Z,8.08
2019-02-12T13:48:59.439Z,5.40
2019-02-12T14:14:39.681Z,10.56
2019-02-12T14:30:04.683Z,8.09
2019-02-12T14:35:12.925Z,9.87
2019-02-12T14:55:46.441Z,10.28
2019-02-12T15:11:12.235Z,9.34
2019-02-12T15:21:28.702Z,9.18
2019-02-12T15:31:45.580Z,10.05
2019-02-12T15:36:55.535Z,13.94
2019-02-12T15:42:02.177Z,9.02
2019-02-12T15:47:10.341Z,9.23
2019-02-12T15:52:18.521Z,11.86
2019-02-12T15:57:27.183Z,9.10
2019-02-12T16:07:42.631Z,9.73
2019-02-12T16:12:51.579Z,10.73
2019-02-12T16:17:58.403Z,10.01
2019-02-12T16:23:05.010Z,11.48
2019-02-12T16:28:13.144Z,11.20
2019-02-12T16:33:21.357Z,6.79
2019-02-12T16:38:29.905Z,11.27
2019-02-12T16:43:38.351Z,12.61
2019-02-12T16:48:46.722Z,13.06
2019-02-12T16:53:54.733Z,11.03
2019-02-12T16:59:03.807Z,11.07
2019-02-12T17:04:12.175Z,9.84
2019-02-12T17:09:21.265Z,16.81
2019-02-12T17:14:29.772Z,12.16
2019-02-12T17:19:38.018Z,12.39
2019-02-12T17:24:46.580Z,13.39
2019-02-12T17:29:55.069Z,13.69
2019-02-12T17:35:03.559Z,11.53
2019-02-12T17:40:12.211Z,8.69
2019-02-12T17:45:21.219Z,13.90
2019-02-12T17:50:29.737Z,10.35
2019-02-12T17:55:38.580Z,13.80
2019-02-12T18:00:46.938Z,17.17
2019-02-12T18:05:55.434Z,15.33
2019-02-12T18:11:03.705Z,16.89
2019-02-12T18:16:12.086Z,16.30
2019-02-12T18:21:20.379Z,14.62
2019-02-12T18:26:33.368Z,20.95
2019-02-12T18:31:36.529Z,15.37
2019-02-12T18:36:45.144Z,16.41
2019-02-12T18:41:53.709Z,18.68
2019-02-12T18:47:01.948Z,16.71
2019-02-12T18:52:10.319Z,18.16
2019-02-12T18:57:18.792Z,17.64
2019-02-12T19:02:27.183Z,19.00
2019-02-12T19:07:35.785Z,17.34
2019-02-12T19:12:44.228Z,21.09
2019-02-12T19:17:52.730Z,24.16
2019-02-12T19:23:01.310Z,24.01
2019-02-12T19:28:09.667Z,23.47
2019-02-12T19:33:17.922Z,19.53
2019-02-12T19:38:26.126Z,25.36
2019-02-12T19:43:35.478Z,23.07
2019-02-12T19:48:44.696Z,23.26
2019-02-12T19:53:53.253Z,26.81
2019-02-12T19:59:01.320Z,26.18
2019-02-12T20:04:09.256Z,24.43
2019-02-12T20:09:17.222Z,20.47
2019-02-12T20:14:25.168Z,27.29
2019-02-12T20:19:33.128Z,21.97
2019-02-12T20:24:41.285Z,25.88
2019-02-12T20:29:49.317Z,26.29
2019-02-12T20:34:57.393Z,25.45
2019-02-12T20:40:05.351Z,26.99
2019-02-12T20:45:13.397Z,27.58
2019-02-12T20:50:21.521Z,26.86
2019-02-12T20:55:29.625Z,24.28
2019-02-12T21:00:37.577Z,31.07
2019-02-12T21:05:45.523Z,27.95
2019-02-12T21:10:53.450Z,26.96
2019-02-12T21:16:01.500Z,27.29
2019-02-12T21:21:09.624Z,30.31
2019-02-12T21:26:17.941Z,25.68
2019-02-12T21:31:26.104Z,26.63
2019-02-12T21:36:34.253Z,27.26
2019-02-12T21:41:42.425Z,28.84
2019-02-12T21:46:50.868Z,25.39
2019-02-12T21:51:59.005Z,26.59
2019-02-12T21:57:07.145Z,28.25
2019-02-12T22:02:15.266Z,26.79
2019-02-12T22:07:23.367Z,26.99
2019-02-12T22:12:31.521Z,29.97
2019-02-12T22:17:39.696Z,31.19
2019-02-12T22:22:47.833Z,31.14
2019-02-12T22:27:56.028Z,27.82
2019-02-12T22:33:04.092Z,28.51
2019-02-12T22:38:12.249Z,30.99
2019-02-12T22:43:21.054Z,31.48
2019-02-12T22:48:29.380Z,31.07
2019-02-12T22:53:37.446Z,32.39
2019-02-12T22:58:45.568Z,33.26
2019-02-12T23:03:53.817Z,32.20
2019-02-12T23:09:02.840Z,34.92
2019-02-12T23:14:10.912Z,32.92
2019-02-12T23:19:19.004Z,33.94
2019-02-12T23:24:27.159Z,34.41
2019-02-12T23:29:35.321Z,32.89
2019-02-12T23:34:43.703Z,32.97
2019-02-12T23:39:51.842Z,36.02
2019-02-12T23:44:59.912Z,37.09
2019-02-12T23:50:08.204Z,41.95
2019-02-12T23:55:16.304Z,33.94
